Airfield :
LOGIN :

Register | Disclaimer

   EN    FR    IT 

 










Legend :    VFR   Marginal VFR   IFR   Intensive IFR   Very Intensive IFR
Visi :
Ceiling :
>= 8 km
>= 3000ft
5 to 8 km
1000 to 3000 ft
1500m to 5 km
500 to 1000 ft
800 to 1500m
200 to 500 ft
< 800m
< 200 ft
Symbols :   Thunderstorms  Fog  Heavy snow  Heavy precipitations  Wind > 20 kt
SIGMETs :     Misc.  Thunderstorms  Icing  Turbulence  Mountain Waves  Volcanic Ashes






- Airport Elevation : 768 ft
- IATA code : MXP


LIMC - Milano Malpensa

CURRENT METAR :
  • 212320Z VRB01KT 0900 R35R/P1500N R17L/P1500N R35L/P1500N -RA FG BKN002 OVC012 03/03 Q1009 NOSIG

EXPIRED METARs :
  • 212250Z VRB01KT 0800 R35R/P1500N R17L/P1500N R35L/P1500N -RA FG BKN003 OVC012 03/03 Q1010 NOSIG
  • 212220Z VRB02KT 0800 R35R/P1500N R17L/1400U R35L/P1500N -RA FG BKN002 OVC012 03/03 Q1010 NOSIG
  • 212150Z VRB01KT 0500 R35R/P1500N R17L/1400D R35L/P1500N -RA FG BKN002 OVC015 03/03 Q1011 NOSIG
  • 212120Z VRB02KT 0800 R35R/P1500N R17L/1100U R35L/P1500N -RA FG BKN002 OVC015 03/03 Q1011 NOSIG
  • 212050Z VRB02KT 0500 R35R/0900U R17L/0700D R35L/1200D -RA FG BKN002 OVC015 03/03 Q1011 NOSIG

TAF TAF LIMC
Valid from the 22 at 00:00 until the 23 at 06:00 UTC


212300Z 2200/2306 VRB05KT 1200 DZ BKN010 BKN030
TEMPO 2200/2204 0800 FG RA
TEMPO 2212/2303 RA



MET'MAP, your aeronautical weather chart ! - Copyright ORBIFLY December 2007 - Disclaimer

ORBIFLY MET'MAP TEAM :

Programming & Development : Alexandra Zaïnal
Concept & original design : Baudouin d'Aumeries
Assistance for programming : Marc-Olivier Méhu
Technical & hardware support : Manuel Goepfert

Contact : metmap@orbifly.com




SOURCES & CREDITS :

   NOAA